Urb Mabu, Puerto Rico
Current Conditions -  °F | °C
As of 1:53 AM on Sunday 21 Dec 2014 (Local Time) from TJNR Reporting Station
Broken Clouds Broken Clouds  
Wind Chill: 78°   Ceiling: 2900
Heat Index: 80°   Visibility: 10mi
Dew Point: 70°   Wind: 10mph
Humidity: 76%   Direction: 70°ENE
Pressure: 30.06"   Gusts: NA
Location:  18.1494°N, 65.8294°W
Report Text: TJNR 210553Z AUTO 07009KT 10SM BKN029 BKN037 BKN048 26/21 A3006 RMK AO2 SLP178 T02560211 10256 20239 58008 $
Loading
Personal Weather Stations






























Interactive Weather Map New forecast layout! Learn more

10-Day Weather Forecast

Advertisements
Track Severe Weather on mobile